Saugus, MA (01906)

9:42 AM EST on December 04, 2016 (GMT -0500)
W1CPR - Amateur Radio Station - Woodland Ave, Saugus, MA | | Change Station

Elev 164 ft 42.49 °N, 71.01 °W | Updated 29 seconds ago

Mostly Cloudy
Mostly Cloudy
34.5 °F
Feels Like 34 °F
N
2.9
Wind Variable Wind from WNW
Gusts 10.0 mph

Today
High -- | Low -- °F
--% Chance of Precip.
Yesterday
High -- | Low -- °F
Precip. -- in
Pressure 30.18 in
Visibility 10.0 miles
Clouds Mostly Cloudy 3800 ft
Windchill 34 °F
Dew Point 22 °F
Humidity 61%
Rainfall 0.00 in
Snow Depth Not available.
6:57 AM 4:11 PM
Waxing Crescent, 23% visible
METAR KBOS 041354Z 31013G19KT 10SM BKN038 02/M07 A3018 RMK AO2 SLP220 T00171067
Pressure 30.18 in
Visibility 10.0 miles
Clouds Mostly Cloudy 3800 ft
Windchill 34 °F
Dew Point 22 °F
Humidity 61%
Rainfall 0.00 in
Snow Depth Not available.
6:57 AM 4:11 PM
Waxing Crescent, 23% visible
METAR KBOS 041354Z 31013G19KT 10SM BKN038 02/M07 A3018 RMK AO2 SLP220 T00171067

10-Day Weather Forecast

Almanac

Astronomy

Dec. 04, 2016 Rise Set
Actual Time
Civil Twilight
Nautical Twilight
Astronomical Twilight
Moon
Length of Visible Light
Length of Day
Tomorrow will be .
, % of the Moon is Illuminated

Today's Extremes

State Highs State Lows

Community

WunderPhotos

Upload Photos

1,955,602 photos uploaded!

WunderBlog® & News

Nearby

Air Quality

  Air Quality AQ Index Pollutant
Not available.

Snow Depth

Station Depth Elevation

Earthquake Activity

City Distance Mag. Time & Date
Minimum magnitude displayed is 2.5.

Coastal Water Temperatures

Place Temperature

Stations

Nearby Weather Stations

Station Location Temp. Windchill Dew Point Humidity Wind Precip. Elev Updated Type
                   

Watches & Warnings

There are currently no watches in effect.